Weather observations for the past three days for
San Antonio, San Antonio International Airport
Metric (Imperial)
Date Time (cdt) Wind (kph) Vis. (km) Weather Sky Cond. Temperature (ºC) Relative Humidity Wind Chill (°C) Heat Index (°C) Pressure Precipitation (cm)
Air Dwpt 6 hour altimeter (cm) sea level (mb) 1 hr 3 hr 6 hr
Max. Min.
01 16:51 Vrbl 7 16.09 Partly Cloudy FEW075 SCT250 36.1 17.8 34% 37 75.97 1010.6
01 15:51 Vrbl 9 16.09 A Few Clouds FEW075 FEW250 35.6 18.3 36% 37 76.02 1011.3
01 14:51 Vrbl 11 16.09 A Few Clouds FEW070 FEW250 35 17.8 36% 36 76.1 1012.3
01 13:51 Calm 16.09 A Few Clouds FEW070 FEW250 33.9 17.8 38% 35 76.15 1013.1
01 12:51 SE 11 16.09 A Few Clouds FEW055 32.8 18.9 33.3 25.6 44% 34 76.23 1014.2
01 11:51 SE 11 16.09 Fair CLR 31.7 18.9 47% 33 76.28 1014.7
01 10:51 SE 11 16.09 Fair CLR 30.6 21.7 59% 34 76.28 1015.0
01 09:51 Vrbl 6 16.09 A Few Clouds FEW028 28.9 22.2 67% 32 76.3 1015.0
01 08:51 Calm 16.09 A Few Clouds FEW020 27.2 22.8 77% 30 76.28 1015.0
01 07:51 SW 7 16.09 A Few Clouds FEW020 FEW250 26.1 22.8 82% 28 76.25 1014.5
01 06:51 S 7 16.09 A Few Clouds FEW020 26.1 23.3 28.3 25.6 85% 28 76.23 1014.1
01 05:51 S 11 16.09 Mostly Cloudy BKN019 26.7 23.3 82% 29 76.23 1014.3
01 04:51 S 13 16.09 Mostly Cloudy BKN019 26.7 23.3 82% 29 76.23 1014.1
01 03:51 S 9 16.09 Mostly Cloudy BKN020 27.2 23.3 79% 30 76.25 1014.4
01 02:51 S 15 16.09 Fair CLR 26.7 22.8 79% 29 76.23 1014.2
01 01:51 SE 15 16.09 Fair CLR 27.2 22.8 77% 30 76.23 1014.2
01 00:51 SE 20 16.09 Fair CLR 28.3 21.1 35.6 27.8 65% 31 76.2 1013.8
31 23:51 SE 26 16.09 A Few Clouds FEW250 28.9 20.6 61% 31 76.17 1013.4
31 22:51 SE 26 G 44 16.09 A Few Clouds FEW250 30.6 20.6 55% 33 76.15 1013.0
31 21:51 SE 28 16.09 Partly Cloudy FEW080 SCT110 31.7 20 50% 34 76.1 1012.3
31 20:51 SE 31 16.09 Partly Cloudy SCT085 32.8 20 47% 35 76.02 1011.4
31 19:51 E 11 16.09 Partly Cloudy SCT085 33.9 17.8 38% 35 75.97 1010.8
31 18:51 E 17 16.09 A Few Clouds FEW080 FEW250 35.6 17.8 36.1 32.2 35% 37 75.95 1010.4
31 17:51 E 9 16.09 A Few Clouds FEW075 FEW250 35.6 17.8 35% 37 75.95 1010.6
31 16:51 E 11 16.09 Partly Cloudy SCT070 SCT250 35 18.9 39% 37 76 1011.1
31 15:51 E 17 16.09 Partly Cloudy SCT070 SCT250 36.1 19.4 37% 38 76.05 1011.8
31 14:51 Vrbl 6 16.09 Partly Cloudy SCT065 35 19.4 40% 37 76.15 1013.1
31 13:51 SE 9 16.09 Mostly Cloudy BKN060 34.4 18.9 40% 36 76.2 1014.0
31 12:51 Vrbl 7 16.09 Partly Cloudy SCT050 32.8 20 32.8 26.1 47% 35 76.25 1014.6
31 11:51 SE 19 16.09 A Few Clouds FEW036 32.2 21.7 54% 36 76.28 1015.0
31 10:51 Vrbl 9 16.09 A Few Clouds FEW026 30 22.2 63% 33 76.3 1015.1
31 09:51 SE 13 16.09 Partly Cloudy SCT019 29.4 22.8 68% 33 76.28 1014.8
31 08:51 SE 13 16.09 Mostly Cloudy SCT013 BKN018 BKN250 27.8 23.9 79% 32 76.25 1014.6
31 07:51 SE 11 16.09 Mostly Cloudy SCT014 BKN022 26.1 23.9 88% 28 76.23 1014.3
31 06:51 S 9 16.09 Mostly Cloudy SCT019 BKN024 26.1 23.9 27.2 26.1 88% 28 76.2 1013.7
31 05:51 S 9 16.09 Overcast BKN013 OVC019 26.1 23.9 88% 28 76.2 0.0
31 04:51 S 19 16.09 Mostly Cloudy BKN015 BKN021 26.1 23.9 88% 28 76.23 0.0
31 03:51 SE 15 16.09 Mostly Cloudy BKN017 BKN023 26.1 23.9 88% 28 76.23 0.0
31 02:51 S 15 16.09 Mostly Cloudy BKN015 26.7 23.9 85% 29 76.23 0.0
31 01:51 SE 19 16.09 A Few Clouds FEW017 26.7 23.3 82% 29 76.23 0.0
31 00:51 SE 20 16.09 A Few Clouds FEW070 27.2 22.8 35.6 27.2 77% 30 76.23 0.0
30 23:51 SE 13 16.09 A Few Clouds FEW070 28.3 21.1 65% 31 76.2 0.0
30 22:51 SE 22 16.09 A Few Clouds FEW080 FEW250 29.4 20.6 59% 32 76.17 0.0
30 21:51 SE 24 16.09 Partly Cloudy SCT075 SCT250 31.1 20 52% 33 76.1 0.0
30 20:51 SE 33 16.09 Mostly Cloudy and Breezy BKN070 BKN250 31.7 20.6 52% 34 76.02 0.0
30 19:51 SE 26 16.09 Mostly Cloudy BKN075 BKN095 BKN250 33.9 19.4 42% 36 75.97 0.0
30 18:51 SE 17 16.09 A Few Clouds FEW080 FEW250 35.6 17.8 36.7 31.7 35% 37 75.95 0.0
30 17:51 SE 17 16.09 A Few Clouds FEW075 36.1 17.2 33% 37 75.95 0.0
30 16:51 E 9 16.09 Partly Cloudy SCT070 35.6 18.3 36% 37 75.97 0.0
30 15:51 SE 11 16.09 Partly Cloudy SCT070 35.6 18.3 36% 37 76.05 0.0
30 14:51 SE 13 16.09 Mostly Cloudy BKN060 33.3 20 46% 36 76.15 0.0
30 13:51 SE 11 16.09 Mostly Cloudy BKN050 33.9 20.6 46% 37 76.2 0.0
30 12:51 Vrbl 6 16.09 Partly Cloudy SCT044 32.8 21.1 32.8 25.6 50% 36 76.28 0.0
30 11:51 Vrbl 6 16.09 Partly Cloudy SCT035 31.1 21.7 57% 34 76.33 0.0
30 10:51 SW 13 16.09 Mostly Cloudy SCT024 BKN030 30 22.8 65% 34 76.33 1015.6
30 09:51 S 17 16.09 Mostly Cloudy BKN019 27.8 22.8 74% 31 76.33 1015.5
30 08:51 S 13 16.09 Mostly Cloudy BKN017 27.2 23.3 79% 30 76.3 1015.4
30 07:51 Vrbl 11 16.09 Mostly Cloudy BKN015 26.1 23.3 85% 28 76.28 1014.9
30 06:51 S 11 16.09 Mostly Cloudy BKN015 25.6 23.3 27.8 25.6 87% 27 76.25 1014.5
30 05:51 S 15 16.09 Mostly Cloudy BKN017 26.1 23.3 85% 28 76.25 1014.4
30 04:51 S 11 16.09 Mostly Cloudy BKN015 25.6 23.3 87% 27 76.25 1014.3
30 03:51 S 11 16.09 Fair CLR 25.6 22.2 82% 27 76.25 1014.4
30 02:51 S 11 16.09 Fair CLR 26.1 21.7 77% 28 76.25 1014.5
30 01:51 SE 13 16.09 Fair CLR 26.7 21.1 71% 28 76.25 1014.7
30 00:51 S 15 16.09 A Few Clouds FEW075 27.8 20.6 35.6 27.8 65% 30 76.25 1014.6
29 23:51 SE 19 16.09 Partly Cloudy SCT075 28.3 20.6 63% 30 76.25 1014.6
29 22:51 SE 19 16.09 Partly Cloudy SCT075 29.4 20.6 59% 32 76.23 1014.2
29 21:51 SE 24 G 39 16.09 Mostly Cloudy BKN070 31.1 20 52% 33 76.17 1013.5
29 20:51 SE 26 G 35 16.09 Mostly Cloudy BKN075 32.8 20 47% 35 76.1 1012.5
29 19:51 SE 13 16.09 Partly Cloudy SCT080 33.3 17.8 40% 34 76.05 1011.8
29 18:51 S 9 16.09 A Few Clouds FEW075 FEW250 35.6 17.8 36.7 32.2 35% 37 76.05 1012.0
29 17:51 S 9 16.09 Partly Cloudy SCT070 35.6 18.3 36% 37 76.07 1012.1
Date Time (cdt) Wind (kph) Vis. (km) Weather Sky Cond. Air Dwpt Max. Min. Relative Humidity Wind Chill (°C) Heat Index (°C) altimeter (cm) sea level (mb) 1 hr 3 hr 6 hr
6 hour
Temperature (ºC) Pressure Precipitation (cm)